Time;durP1;ratioP1;P1;durP2;ratioP2;P2;SDS_P1;SDS_P2;PMS_P1;PMS_P2;Temp;Humidity;BMP_temperature;BMP_pressure;BME280_temperature;BME280_humidity;BME280_pressure;Samples;Min_cycle;Max_cycle;Signal;HPM_P1;HPM_P2
2021/09/04 00:00:16;;;;;;;6.73;2.10;;;12.90;99.90;;;;;;5119957;27;20188;-44
2021/09/04 00:02:42;;;;;;;6.93;2.00;;;12.90;99.90;;;;;;5103632;27;20212;-43
2021/09/04 00:05:10;;;;;;;5.73;1.83;;;12.90;99.90;;;;;;5107737;28;20189;-48
2021/09/04 00:07:36;;;;;;;4.90;2.13;;;12.80;99.90;;;;;;5103038;27;20205;-43
2021/09/04 00:10:04;;;;;;;5.70;2.47;;;12.80;99.90;;;;;;5121846;27;20284;-46
2021/09/04 00:12:32;;;;;;;4.90;2.33;;;12.80;99.90;;;;;;5105814;27;21106;-43
2021/09/04 00:15:00;;;;;;;6.83;2.27;;;12.80;99.90;;;;;;5122067;27;20870;-43
2021/09/04 00:17:28;;;;;;;7.97;2.00;;;12.80;99.90;;;;;;5119414;27;20268;-44
2021/09/04 00:19:54;;;;;;;8.57;1.80;;;12.70;99.90;;;;;;5105148;27;20539;-46
2021/09/04 00:22:21;;;;;;;3.30;1.93;;;12.70;99.90;;;;;;5103092;28;20212;-47
2021/09/04 00:24:47;;;;;;;4.77;1.90;;;12.60;99.90;;;;;;5112400;27;20732;-43
2021/09/04 00:27:14;;;;;;;5.47;2.17;;;12.50;99.90;;;;;;5113680;27;20193;-44
2021/09/04 00:29:41;;;;;;;5.57;2.40;;;12.50;99.90;;;;;;5113247;27;20693;-43
2021/09/04 00:32:09;;;;;;;3.03;1.90;;;12.50;99.90;;;;;;5113648;27;20204;-46
2021/09/04 00:34:36;;;;;;;4.97;1.70;;;12.50;99.90;;;;;;5109987;27;20205;-44
2021/09/04 00:37:03;;;;;;;7.77;2.37;;;12.40;99.90;;;;;;5104133;28;20571;-43
2021/09/04 00:39:29;;;;;;;3.60;2.30;;;12.40;99.90;;;;;;5114707;27;20210;-43
2021/09/04 00:41:56;;;;;;;3.47;2.70;;;12.40;99.90;;;;;;5111584;27;20705;-43
2021/09/04 00:44:23;;;;;;;4.50;2.67;;;12.40;99.90;;;;;;5095737;27;20248;-43
2021/09/04 00:46:50;;;;;;;4.33;2.60;;;12.40;99.90;;;;;;5123141;27;20199;-44
2021/09/04 00:49:18;;;;;;;5.20;2.60;;;12.40;99.90;;;;;;5120621;27;20200;-43
2021/09/04 00:51:45;;;;;;;6.13;2.40;;;12.40;99.90;;;;;;5109941;27;20190;-44
2021/09/04 00:54:12;;;;;;;6.47;2.57;;;12.40;99.90;;;;;;5101213;28;20287;-45
2021/09/04 00:56:38;;;;;;;9.73;2.60;;;12.30;99.90;;;;;;5096786;28;20834;-42
2021/09/04 00:59:08;;;;;;;3.87;2.70;;;12.40;99.90;;;;;;5116149;27;20224;-42
2021/09/04 01:01:36;;;;;;;2.40;2.20;;;12.40;99.90;;;;;;5119621;27;20326;-45
2021/09/04 01:04:05;;;;;;;6.80;2.60;;;12.30;99.90;;;;;;5119365;28;20225;-45
2021/09/04 01:06:35;;;;;;;4.90;2.40;;;12.30;99.90;;;;;;5119069;27;20180;-43
2021/09/04 01:09:02;;;;;;;5.23;2.67;;;12.20;99.90;;;;;;5103069;28;20573;-43
2021/09/04 01:11:30;;;;;;;5.33;2.60;;;12.20;99.90;;;;;;5114976;27;22922;-42
2021/09/04 01:13:57;;;;;;;6.27;2.47;;;12.20;99.90;;;;;;5112237;27;20217;-43
2021/09/04 01:16:24;;;;;;;5.97;2.67;;;12.20;99.90;;;;;;5107399;27;20215;-43
2021/09/04 01:18:50;;;;;;;6.30;2.50;;;12.20;99.90;;;;;;5126486;27;20201;-43
2021/09/04 01:21:17;;;;;;;8.83;2.50;;;12.20;99.90;;;;;;5119925;27;20706;-44
2021/09/04 01:23:45;;;;;;;4.37;2.23;;;12.20;99.90;;;;;;5116311;27;20228;-44
2021/09/04 01:26:13;;;;;;;5.77;2.27;;;12.20;99.90;;;;;;5121524;27;20201;-46
2021/09/04 01:28:40;;;;;;;4.93;2.10;;;12.20;99.90;;;;;;5125244;27;20762;-42
2021/09/04 01:31:08;;;;;;;4.27;2.13;;;12.30;99.90;;;;;;5102606;27;20212;-49
2021/09/04 01:33:42;;;;;;;4.97;2.27;;;12.30;99.90;;;;;;5123765;27;20954;-44
2021/09/04 01:36:08;;;;;;;5.60;2.40;;;12.30;99.90;;;;;;5125269;27;20215;-44
2021/09/04 01:38:35;;;;;;;3.23;2.00;;;12.30;99.90;;;;;;5124522;27;20419;-47
2021/09/04 01:41:01;;;;;;;2.40;2.10;;;12.40;99.90;;;;;;5119432;27;20272;-44
2021/09/04 01:43:30;;;;;;;3.90;2.47;;;12.40;99.90;;;;;;5103440;27;20236;-45
2021/09/04 01:45:56;;;;;;;3.07;2.13;;;12.40;99.90;;;;;;5101387;27;20691;-46
2021/09/04 01:48:23;;;;;;;4.10;2.47;;;12.40;99.90;;;;;;5122612;27;20205;-44
2021/09/04 01:50:50;;;;;;;6.80;2.60;;;12.40;99.90;;;;;;5125783;27;20196;-45
2021/09/04 01:53:16;;;;;;;4.57;2.03;;;12.30;99.90;;;;;;5115117;27;20213;-45
2021/09/04 01:55:43;;;;;;;3.83;2.50;;;12.40;99.90;;;;;;5108156;27;20197;-44
2021/09/04 01:58:10;;;;;;;2.47;2.07;;;12.40;99.90;;;;;;5125507;27;20192;-44
2021/09/04 02:00:38;;;;;;;6.93;2.93;;;12.50;99.90;;;;;;5103622;27;24642;-44
2021/09/04 02:03:04;;;;;;;6.00;2.70;;;12.50;99.90;;;;;;5125816;27;20227;-44
2021/09/04 02:05:31;;;;;;;3.70;2.00;;;12.50;99.90;;;;;;5117936;27;20196;-43
2021/09/04 02:07:58;;;;;;;5.37;2.40;;;12.50;99.90;;;;;;5126237;27;20207;-43
2021/09/04 02:10:25;;;;;;;5.43;2.50;;;12.50;99.90;;;;;;5105305;27;20785;-44
2021/09/04 02:12:51;;;;;;;2.67;2.07;;;12.60;99.90;;;;;;5125715;27;20228;-42
2021/09/04 02:15:18;;;;;;;7.90;2.53;;;12.60;99.90;;;;;;5111311;27;20211;-46
2021/09/04 02:17:46;;;;;;;6.57;2.20;;;12.60;99.90;;;;;;5111143;27;20302;-43
2021/09/04 02:20:14;;;;;;;7.63;3.23;;;12.60;99.90;;;;;;5123152;27;20203;-45
2021/09/04 02:22:41;;;;;;;6.00;2.40;;;12.60;99.90;;;;;;5123224;27;20425;-44
2021/09/04 02:25:10;;;;;;;7.13;2.90;;;12.70;99.90;;;;;;5124448;27;20212;-44
2021/09/04 02:27:38;;;;;;;6.73;2.73;;;12.70;99.90;;;;;;5124342;27;20779;-43
2021/09/04 02:30:07;;;;;;;8.33;2.77;;;12.70;99.90;;;;;;5136508;27;20824;-44
2021/09/04 02:32:35;;;;;;;4.73;2.73;;;12.80;99.90;;;;;;5094952;27;20203;-44
2021/09/04 02:35:04;;;;;;;4.93;2.50;;;12.80;99.90;;;;;;5118854;27;20198;-42
2021/09/04 02:37:32;;;;;;;8.17;2.57;;;12.80;99.90;;;;;;5110452;27;20189;-42
2021/09/04 02:39:59;;;;;;;4.57;2.03;;;12.80;99.90;;;;;;5125752;27;20203;-42
2021/09/04 02:42:26;;;;;;;4.10;2.77;;;12.90;99.90;;;;;;5114871;27;20201;-43
2021/09/04 02:44:54;;;;;;;3.47;2.57;;;12.90;99.90;;;;;;5109677;27;20212;-44
2021/09/04 02:47:21;;;;;;;4.33;2.20;;;12.80;99.90;;;;;;5098970;27;20214;-43
2021/09/04 02:49:48;;;;;;;4.13;2.13;;;12.90;99.90;;;;;;5121202;27;20205;-44
2021/09/04 02:52:16;;;;;;;3.97;2.33;;;12.90;99.90;;;;;;5103868;27;20198;-45
2021/09/04 02:54:43;;;;;;;4.57;2.30;;;12.90;99.90;;;;;;5121392;27;20216;-44
2021/09/04 02:57:11;;;;;;;5.20;2.47;;;12.90;99.90;;;;;;5120197;27;20204;-45
2021/09/04 02:59:38;;;;;;;5.07;2.07;;;12.90;99.90;;;;;;5130883;27;20840;-43
2021/09/04 03:02:06;;;;;;;7.07;2.53;;;12.90;99.90;;;;;;5114813;27;20642;-47
2021/09/04 03:04:34;;;;;;;8.00;2.43;;;12.90;99.90;;;;;;5115152;27;20223;-43
2021/09/04 03:07:02;;;;;;;3.90;2.27;;;13.00;99.90;;;;;;5124459;27;20197;-46
2021/09/04 03:09:30;;;;;;;6.73;2.10;;;13.00;99.90;;;;;;5118991;27;20943;-46
2021/09/04 03:11:57;;;;;;;2.80;2.50;;;13.00;99.90;;;;;;5121275;27;20188;-43
2021/09/04 03:14:23;;;;;;;3.63;2.27;;;13.00;99.90;;;;;;5115536;27;20332;-43
2021/09/04 03:16:51;;;;;;;2.80;2.03;;;13.00;99.90;;;;;;5105401;27;20200;-42
2021/09/04 03:19:18;;;;;;;3.13;2.07;;;13.00;99.90;;;;;;5105815;27;20543;-44
2021/09/04 03:21:45;;;;;;;4.17;1.90;;;13.00;99.90;;;;;;5123841;27;20874;-45
2021/09/04 03:24:12;;;;;;;5.27;2.30;;;13.00;99.90;;;;;;5122536;27;20215;-45
2021/09/04 03:26:42;;;;;;;2.73;2.17;;;13.00;99.90;;;;;;5102989;28;20201;-45
2021/09/04 03:29:09;;;;;;;6.53;2.20;;;13.00;99.90;;;;;;5106944;27;20204;-43
2021/09/04 03:31:36;;;;;;;2.63;2.23;;;13.10;99.90;;;;;;5136691;27;20923;-44
2021/09/04 03:34:04;;;;;;;5.50;2.50;;;13.10;99.90;;;;;;5099816;27;20961;-44
2021/09/04 03:36:31;;;;;;;3.43;2.10;;;13.10;99.90;;;;;;5123958;27;20197;-44
2021/09/04 03:38:58;;;;;;;5.07;2.30;;;13.20;99.90;;;;;;5120666;27;20192;-47
2021/09/04 03:41:25;;;;;;;7.10;2.63;;;13.20;99.90;;;;;;5106133;27;20192;-44
2021/09/04 03:43:53;;;;;;;6.17;2.90;;;13.20;99.90;;;;;;5102150;27;20228;-45
2021/09/04 03:46:20;;;;;;;3.27;2.37;;;13.20;99.90;;;;;;5123063;27;20192;-43
2021/09/04 03:48:48;;;;;;;4.70;3.20;;;13.20;99.90;;;;;;5108611;27;20205;-45
2021/09/04 03:51:14;;;;;;;5.07;2.70;;;13.20;99.90;;;;;;5114849;27;20946;-43
2021/09/04 03:53:42;;;;;;;4.43;2.90;;;13.20;99.90;;;;;;5124807;27;20296;-43
2021/09/04 03:56:09;;;;;;;5.30;2.70;;;13.30;99.90;;;;;;5101041;27;20200;-44
2021/09/04 03:58:36;;;;;;;4.27;2.73;;;13.30;99.90;;;;;;5128701;27;20201;-43
2021/09/04 04:01:04;;;;;;;8.40;2.67;;;13.30;99.90;;;;;;5114488;27;20193;-44
2021/09/04 04:03:32;;;;;;;4.07;2.60;;;13.30;99.90;;;;;;5123811;27;20581;-45
2021/09/04 04:05:58;;;;;;;7.30;3.47;;;13.30;99.90;;;;;;5105387;27;20204;-44
2021/09/04 04:08:25;;;;;;;3.20;2.83;;;13.40;99.90;;;;;;5123939;27;20199;-43
2021/09/04 04:10:52;;;;;;;7.37;3.00;;;13.40;99.90;;;;;;5117012;27;20193;-45
2021/09/04 04:13:20;;;;;;;4.63;3.00;;;13.40;99.90;;;;;;5123294;27;20212;-44
2021/09/04 04:15:47;;;;;;;13.10;2.97;;;13.40;99.90;;;;;;5108932;27;20197;-45
2021/09/04 04:18:17;;;;;;;4.70;2.97;;;13.40;99.90;;;;;;5101229;28;20254;-43
2021/09/04 04:20:44;;;;;;;4.30;2.80;;;13.50;99.90;;;;;;5103805;27;20206;-46
2021/09/04 04:23:11;;;;;;;5.93;3.30;;;13.50;99.90;;;;;;5120421;27;20265;-46
2021/09/04 04:25:37;;;;;;;3.87;3.27;;;13.40;99.90;;;;;;5123501;27;20198;-43
2021/09/04 04:28:05;;;;;;;6.80;3.10;;;13.40;99.90;;;;;;5120722;27;20953;-44
2021/09/04 04:30:32;;;;;;;4.50;3.00;;;13.40;99.90;;;;;;5123752;27;20222;-43
2021/09/04 04:32:59;;;;;;;9.23;4.07;;;13.50;99.90;;;;;;5114582;27;20216;-48
2021/09/04 04:35:27;;;;;;;9.53;3.37;;;13.50;99.90;;;;;;5094581;27;20193;-45
2021/09/04 04:37:54;;;;;;;6.57;3.83;;;13.50;99.90;;;;;;5120293;27;20705;-45
2021/09/04 04:40:22;;;;;;;5.57;3.07;;;13.60;99.90;;;;;;5122536;27;20196;-43
2021/09/04 04:42:49;;;;;;;9.33;3.37;;;13.60;99.90;;;;;;5120646;27;20205;-47
2021/09/04 04:45:16;;;;;;;7.23;3.77;;;13.60;99.90;;;;;;5122626;27;20903;-43
2021/09/04 04:47:43;;;;;;;5.13;2.80;;;13.60;99.90;;;;;;5119757;27;20200;-47
2021/09/04 04:50:11;;;;;;;7.90;3.90;;;13.60;99.90;;;;;;5110540;27;20281;-44
2021/09/04 04:52:40;;;;;;;5.70;3.20;;;13.60;99.90;;;;;;5117870;27;20318;-48
2021/09/04 04:55:09;;;;;;;5.77;4.10;;;13.70;99.90;;;;;;5109838;27;20197;-43
2021/09/04 04:57:36;;;;;;;4.20;2.77;;;13.70;99.90;;;;;;5111578;27;20272;-46
2021/09/04 05:00:03;;;;;;;6.40;3.50;;;13.70;99.90;;;;;;5126184;27;20196;-45
2021/09/04 05:02:30;;;;;;;8.53;3.70;;;13.70;99.90;;;;;;5126540;27;20203;-45
2021/09/04 05:04:57;;;;;;;8.17;3.83;;;13.70;99.90;;;;;;5122802;27;20221;-45
2021/09/04 05:07:23;;;;;;;6.17;3.90;;;13.70;99.90;;;;;;5108291;27;20218;-44
2021/09/04 05:09:51;;;;;;;8.77;4.30;;;13.70;99.90;;;;;;5117826;27;20196;-47
2021/09/04 05:12:18;;;;;;;3.43;2.90;;;13.70;99.90;;;;;;5119679;27;20208;-43
2021/09/04 05:14:45;;;;;;;5.70;3.90;;;13.70;99.90;;;;;;5110048;27;20205;-48
2021/09/04 05:17:12;;;;;;;7.43;3.70;;;13.80;99.90;;;;;;5124065;27;20909;-44
2021/09/04 05:19:39;;;;;;;7.30;3.97;;;13.80;99.90;;;;;;5125050;27;20224;-45
2021/09/04 05:22:06;;;;;;;6.93;3.87;;;13.80;99.90;;;;;;5108891;27;20965;-43
2021/09/04 05:24:35;;;;;;;6.27;3.97;;;13.80;99.90;;;;;;5120309;27;20300;-44
2021/09/04 05:27:03;;;;;;;5.70;3.70;;;13.90;99.90;;;;;;5106146;27;20185;-44
2021/09/04 05:29:30;;;;;;;6.83;3.50;;;13.90;99.90;;;;;;5129964;27;20200;-43
2021/09/04 05:31:57;;;;;;;6.97;4.20;;;13.90;99.90;;;;;;5112884;27;20877;-44
2021/09/04 05:34:24;;;;;;;4.50;4.10;;;13.90;99.90;;;;;;5114725;27;20286;-44
2021/09/04 05:36:50;;;;;;;8.03;4.37;;;13.90;99.90;;;;;;5108867;27;20196;-48
2021/09/04 05:39:17;;;;;;;8.27;4.40;;;13.90;99.90;;;;;;5127651;27;20284;-44
2021/09/04 05:41:43;;;;;;;11.20;4.77;;;14.00;99.90;;;;;;5113616;27;20276;-46
2021/09/04 05:44:11;;;;;;;7.03;4.37;;;14.00;99.90;;;;;;5120727;27;20212;-44
2021/09/04 05:46:38;;;;;;;5.83;4.27;;;14.00;99.90;;;;;;5117515;27;20201;-46
2021/09/04 05:49:05;;;;;;;8.60;4.67;;;14.00;99.90;;;;;;5112454;27;20192;-43
2021/09/04 05:51:31;;;;;;;7.07;4.50;;;14.10;99.90;;;;;;5124128;27;20200;-43
2021/09/04 05:53:58;;;;;;;8.97;5.13;;;14.10;99.90;;;;;;5105933;27;20774;-44
2021/09/04 05:56:24;;;;;;;8.53;5.03;;;14.10;99.90;;;;;;5106202;27;20193;-43
2021/09/04 05:58:51;;;;;;;8.23;4.30;;;14.10;99.90;;;;;;5124927;27;20197;-43
2021/09/04 06:01:19;;;;;;;11.07;5.27;;;14.10;99.90;;;;;;5135601;27;20192;-46
2021/09/04 06:03:45;;;;;;;8.07;4.97;;;14.20;99.90;;;;;;5110549;27;20220;-42
2021/09/04 06:06:12;;;;;;;12.80;5.07;;;14.20;99.90;;;;;;5110341;27;20201;-50
2021/09/04 06:08:39;;;;;;;6.83;4.67;;;14.30;99.90;;;;;;5101465;27;22243;-46
2021/09/04 06:11:06;;;;;;;8.90;5.30;;;14.30;99.90;;;;;;5123967;27;20184;-50
2021/09/04 06:13:32;;;;;;;7.87;5.03;;;14.30;99.90;;;;;;5115465;27;20927;-43
2021/09/04 06:15:59;;;;;;;7.07;5.00;;;14.30;99.90;;;;;;5113088;27;20195;-44
2021/09/04 06:18:27;;;;;;;9.53;4.97;;;14.40;99.90;;;;;;5102735;27;20212;-42
2021/09/04 06:20:53;;;;;;;6.83;4.80;;;14.40;99.90;;;;;;5117936;27;20192;-43
2021/09/04 06:23:20;;;;;;;9.07;5.30;;;14.40;99.90;;;;;;5108015;27;20236;-47
2021/09/04 06:25:46;;;;;;;10.43;5.20;;;14.40;99.90;;;;;;5111821;27;20193;-47
2021/09/04 06:28:13;;;;;;;9.23;5.60;;;14.50;99.90;;;;;;5112427;27;20205;-47
2021/09/04 06:30:40;;;;;;;11.10;5.87;;;14.50;99.90;;;;;;5107574;27;20978;-42
2021/09/04 06:33:06;;;;;;;13.47;5.57;;;14.50;99.90;;;;;;5111783;27;20216;-44
2021/09/04 06:35:34;;;;;;;10.47;5.57;;;14.50;99.90;;;;;;5110673;27;20205;-44
2021/09/04 06:38:01;;;;;;;12.07;5.50;;;14.60;99.90;;;;;;5115585;27;20657;-50
2021/09/04 06:40:27;;;;;;;9.20;5.47;;;14.60;99.90;;;;;;5110119;27;20208;-43
2021/09/04 06:42:54;;;;;;;12.33;5.60;;;14.70;99.90;;;;;;5122311;27;20709;-45
2021/09/04 06:45:21;;;;;;;11.10;6.03;;;14.70;99.90;;;;;;5116974;27;20225;-44
2021/09/04 06:47:47;;;;;;;11.07;5.93;;;14.70;99.90;;;;;;5104169;28;20242;-49
2021/09/04 06:50:14;;;;;;;9.37;5.07;;;14.80;99.90;;;;;;5101967;28;20190;-42
2021/09/04 06:52:42;;;;;;;10.93;6.17;;;14.80;99.90;;;;;;5104950;28;20196;-41
2021/09/04 06:55:09;;;;;;;8.07;5.53;;;14.90;99.90;;;;;;5100459;27;20199;-41
2021/09/04 06:57:36;;;;;;;9.57;5.00;;;14.90;99.90;;;;;;5117273;27;20196;-42
2021/09/04 07:00:03;;;;;;;11.73;5.60;;;15.00;99.90;;;;;;5125332;27;20192;-46
2021/09/04 07:02:29;;;;;;;7.90;5.53;;;15.00;99.90;;;;;;5125613;27;20184;-42
2021/09/04 07:04:56;;;;;;;11.33;6.63;;;15.10;99.90;;;;;;5122522;27;20217;-45
2021/09/04 07:07:23;;;;;;;8.70;5.77;;;15.10;99.90;;;;;;5100189;27;20205;-47
2021/09/04 07:09:50;;;;;;;12.30;6.07;;;15.20;99.90;;;;;;5094800;27;20216;-48
2021/09/04 07:12:17;;;;;;;10.10;5.47;;;15.20;99.90;;;;;;5090549;27;20205;-47
2021/09/04 07:14:44;;;;;;;8.00;5.70;;;15.30;99.90;;;;;;5124211;27;20213;-50
2021/09/04 07:17:10;;;;;;;11.20;6.10;;;15.30;99.90;;;;;;5107577;27;20197;-46
2021/09/04 07:19:37;;;;;;;12.20;5.90;;;15.40;99.90;;;;;;5114652;27;20189;-50
2021/09/04 07:22:04;;;;;;;13.50;5.80;;;15.50;99.90;;;;;;5119900;27;20220;-50
2021/09/04 07:24:31;;;;;;;13.43;5.80;;;15.50;99.90;;;;;;5116227;27;20213;-49
2021/09/04 07:26:59;;;;;;;7.57;4.87;;;15.50;99.90;;;;;;5101115;27;20227;-48
2021/09/04 07:29:26;;;;;;;9.87;5.60;;;15.50;99.90;;;;;;5116951;27;20204;-45
2021/09/04 07:31:53;;;;;;;6.87;5.03;;;15.60;99.90;;;;;;5116073;27;20223;-49
2021/09/04 07:34:19;;;;;;;12.30;7.00;;;15.60;99.90;;;;;;5115960;27;20212;-47
2021/09/04 07:36:46;;;;;;;9.73;5.63;;;15.60;99.90;;;;;;5119252;27;20197;-48
2021/09/04 07:39:13;;;;;;;8.93;5.53;;;15.60;99.90;;;;;;5116570;27;20199;-47
2021/09/04 07:41:39;;;;;;;11.27;5.93;;;15.70;99.90;;;;;;5100038;27;20708;-46
2021/09/04 07:44:07;;;;;;;11.13;5.60;;;15.70;99.90;;;;;;5118435;27;20213;-51
2021/09/04 07:46:34;;;;;;;9.60;5.53;;;15.70;99.90;;;;;;5114520;27;20189;-46
2021/09/04 07:49:00;;;;;;;10.67;5.50;;;15.70;99.90;;;;;;5116781;27;20212;-53
2021/09/04 07:51:27;;;;;;;6.87;5.00;;;15.70;99.90;;;;;;5114987;27;20204;-46
2021/09/04 07:53:54;;;;;;;9.23;6.00;;;15.70;99.90;;;;;;5113427;27;20694;-48
2021/09/04 07:56:20;;;;;;;10.70;5.67;;;15.80;99.90;;;;;;5098201;27;20205;-45
2021/09/04 07:58:47;;;;;;;9.13;5.70;;;15.80;99.90;;;;;;5124967;27;20198;-51
2021/09/04 08:01:15;;;;;;;9.93;5.13;;;15.90;99.90;;;;;;5110582;27;20239;-46
2021/09/04 08:03:41;;;;;;;9.23;5.50;;;16.00;99.90;;;;;;5108435;27;20225;-51
2021/09/04 08:06:08;;;;;;;8.93;6.20;;;16.00;99.90;;;;;;5112503;27;20193;-51
2021/09/04 08:08:36;;;;;;;10.80;5.17;;;16.10;99.90;;;;;;5108510;27;20194;-53
2021/09/04 08:11:03;;;;;;;13.83;5.80;;;16.20;99.90;;;;;;5101332;27;20227;-52
2021/09/04 08:13:30;;;;;;;8.17;5.17;;;16.20;99.90;;;;;;5108626;27;20225;-48
2021/09/04 08:15:57;;;;;;;9.93;5.20;;;16.30;99.90;;;;;;5116818;27;20539;-52
2021/09/04 08:18:25;;;;;;;8.30;5.20;;;16.40;99.90;;;;;;5111340;27;20224;-45
2021/09/04 08:20:51;;;;;;;10.17;5.27;;;16.40;99.90;;;;;;5117720;27;20204;-52
2021/09/04 08:23:18;;;;;;;9.83;5.10;;;16.50;99.90;;;;;;5116709;27;21004;-49
2021/09/04 08:25:44;;;;;;;8.93;4.60;;;16.60;99.90;;;;;;5118100;27;20218;-48
2021/09/04 08:28:11;;;;;;;8.30;5.20;;;16.70;99.90;;;;;;5100267;27;20215;-45
2021/09/04 08:30:39;;;;;;;7.57;5.37;;;16.70;99.90;;;;;;5125156;27;20205;-48
2021/09/04 08:33:06;;;;;;;10.10;5.57;;;16.70;99.90;;;;;;5111857;27;20212;-51
2021/09/04 08:35:34;;;;;;;13.73;5.03;;;16.80;99.90;;;;;;5121339;27;20264;-46
2021/09/04 08:38:06;;;;;;;8.23;5.03;;;16.90;99.90;;;;;;5114375;27;20189;-52
2021/09/04 08:40:33;;;;;;;9.50;4.37;;;16.90;99.90;;;;;;5124482;27;20212;-48
2021/09/04 08:43:01;;;;;;;9.77;4.73;;;16.90;99.90;;;;;;5101343;27;20623;-51
2021/09/04 08:45:28;;;;;;;5.80;4.30;;;16.90;99.90;;;;;;5125138;27;20213;-47
2021/09/04 08:47:56;;;;;;;8.90;5.10;;;16.80;99.90;;;;;;5118097;27;20251;-52
2021/09/04 08:50:26;;;;;;;6.87;4.83;;;16.90;99.90;;;;;;5122949;27;20571;-48
2021/09/04 08:52:56;;;;;;;6.60;4.33;;;16.80;99.90;;;;;;5126894;27;20214;-49
2021/09/04 08:55:23;;;;;;;7.60;4.27;;;16.90;99.90;;;;;;5113716;27;20197;-49
2021/09/04 08:57:50;;;;;;;8.13;4.73;;;16.90;99.90;;;;;;5106376;27;20204;-47
2021/09/04 09:00:28;;;;;;;7.30;4.63;;;16.90;99.90;;;;;;5110474;27;20225;-48
2021/09/04 09:02:55;;;;;;;7.80;4.80;;;16.90;99.90;;;;;;5119114;27;20197;-47
2021/09/04 09:05:21;;;;;;;8.83;5.00;;;16.90;99.90;;;;;;5109572;27;20225;-49
2021/09/04 09:07:48;;;;;;;9.10;4.73;;;17.00;99.90;;;;;;5128508;27;20197;-47
2021/09/04 09:10:38;;;;;;;6.63;4.40;;;17.00;99.90;;;;;;5119153;27;20196;-46
2021/09/04 09:13:05;;;;;;;8.57;4.80;;;17.00;99.90;;;;;;5118606;27;20304;-49
2021/09/04 09:15:33;;;;;;;11.33;5.00;;;17.00;99.90;;;;;;5091003;27;20337;-47
2021/09/04 09:18:02;;;;;;;6.83;4.60;;;17.00;99.90;;;;;;5127497;27;20245;-46
2021/09/04 09:20:29;;;;;;;9.57;4.37;;;17.00;99.90;;;;;;5111794;27;20197;-50
2021/09/04 09:23:08;;;;;;;8.87;4.97;;;17.00;99.90;;;;;;5110628;27;20228;-48
2021/09/04 09:25:37;;;;;;;7.40;4.17;;;17.10;99.90;;;;;;5112528;27;20235;-46
2021/09/04 09:28:06;;;;;;;9.40;4.43;;;17.20;99.90;;;;;;5114736;27;21830;-44
2021/09/04 09:30:35;;;;;;;10.17;4.90;;;17.30;99.90;;;;;;5107901;27;20200;-48
2021/09/04 09:33:01;;;;;;;7.83;5.03;;;17.30;99.90;;;;;;5125747;27;20221;-47
2021/09/04 09:35:33;;;;;;;8.07;4.77;;;17.30;99.90;;;;;;5127224;27;20184;-47
2021/09/04 09:38:01;;;;;;;9.50;5.53;;;17.20;99.90;;;;;;5113024;27;20200;-45
2021/09/04 09:40:29;;;;;;;9.17;5.00;;;17.10;99.90;;;;;;5123704;27;20201;-48
2021/09/04 09:42:57;;;;;;;8.07;4.37;;;17.20;99.90;;;;;;5120771;27;20247;-45
2021/09/04 09:45:39;;;;;;;7.43;4.50;;;17.20;99.90;;;;;;5118663;27;20240;-45
2021/09/04 09:48:06;;;;;;;6.83;4.20;;;17.30;99.90;;;;;;5135437;27;20200;-47
2021/09/04 09:50:34;;;;;;;8.90;4.13;;;17.30;99.90;;;;;;5114490;27;20211;-46
2021/09/04 09:53:02;;;;;;;7.80;4.50;;;17.30;99.90;;;;;;5107170;27;20221;-45
2021/09/04 09:55:29;;;;;;;5.80;4.53;;;17.40;99.90;;;;;;5125101;27;20259;-49
2021/09/04 09:57:58;;;;;;;6.47;3.97;;;17.40;99.90;;;;;;5125650;27;20336;-49
2021/09/04 10:00:26;;;;;;;8.00;4.80;;;17.40;99.90;;;;;;5129228;27;20270;-52
2021/09/04 10:02:55;;;;;;;8.97;4.73;;;17.50;99.90;;;;;;5118804;27;20279;-49
2021/09/04 10:05:25;;;;;;;8.43;4.20;;;17.50;99.90;;;;;;5121331;27;20225;-48
2021/09/04 10:07:53;;;;;;;7.57;4.03;;;17.50;99.90;;;;;;5113008;27;20241;-46
2021/09/04 10:10:20;;;;;;;9.87;4.93;;;17.50;99.90;;;;;;5125283;27;20253;-49
2021/09/04 10:12:48;;;;;;;6.23;4.50;;;17.60;99.90;;;;;;5113901;27;20185;-47
2021/09/04 10:15:17;;;;;;;8.67;4.10;;;17.60;99.90;;;;;;5122943;27;20208;-47
2021/09/04 10:17:45;;;;;;;6.07;3.97;;;17.70;99.90;;;;;;5108239;27;20212;-51
2021/09/04 10:20:12;;;;;;;7.00;4.20;;;17.70;99.90;;;;;;5119577;27;20207;-48
2021/09/04 10:22:41;;;;;;;10.20;3.70;;;17.80;99.90;;;;;;5122379;27;20211;-47
2021/09/04 10:25:14;;;;;;;4.30;3.50;;;17.70;99.90;;;;;;5119285;27;20270;-49
2021/09/04 10:27:44;;;;;;;5.37;3.20;;;17.70;99.90;;;;;;5115962;27;20199;-47
2021/09/04 10:30:27;;;;;;;9.33;4.13;;;17.70;99.90;;;;;;5109162;27;20211;-46
2021/09/04 10:32:58;;;;;;;10.43;3.40;;;17.80;99.90;;;;;;5108297;27;21935;-46
2021/09/04 10:35:45;;;;;;;5.33;3.17;;;17.90;99.90;;;;;;5134569;27;20207;-46
2021/09/04 10:38:31;;;;;;;4.67;3.60;;;18.10;99.90;;;;;;5119690;27;20197;-47
2021/09/04 10:41:20;;;;;;;8.17;3.30;;;18.30;99.90;;;;;;5119766;27;20263;-46
2021/09/04 10:43:48;;;;;;;5.00;3.03;;;18.50;99.90;;;;;;5121378;27;20250;-48
2021/09/04 10:46:18;;;;;;;7.80;3.77;;;18.50;99.90;;;;;;5117399;27;20290;-46
2021/09/04 10:48:57;;;;;;;7.43;3.53;;;18.70;99.90;;;;;;5107169;27;20209;-46
2021/09/04 10:51:44;;;;;;;5.63;3.80;;;18.70;99.90;;;;;;5118614;27;20200;-48
2021/09/04 10:54:11;;;;;;;4.00;3.20;;;18.80;99.90;;;;;;5116390;27;20229;-47
2021/09/04 10:56:39;;;;;;;4.07;3.20;;;18.70;99.90;;;;;;5108287;27;20201;-48
2021/09/04 10:59:05;;;;;;;5.40;3.00;;;18.70;99.90;;;;;;5117685;27;20204;-49
2021/09/04 11:01:53;;;;;;;5.67;3.20;;;18.70;99.90;;;;;;5117197;27;20212;-48
2021/09/04 11:04:20;;;;;;;5.70;3.00;;;18.80;99.90;;;;;;5086684;27;20227;-49
2021/09/04 11:06:49;;;;;;;3.20;2.53;;;18.90;99.90;;;;;;5126150;27;20224;-47
2021/09/04 11:09:17;;;;;;;5.00;3.13;;;18.90;99.90;;;;;;5117265;27;20726;-45
2021/09/04 11:11:44;;;;;;;5.47;3.00;;;18.80;99.90;;;;;;5112374;27;20212;-50
2021/09/04 11:14:19;;;;;;;4.57;3.30;;;18.80;99.90;;;;;;5112200;27;20236;-47
2021/09/04 11:16:50;;;;;;;5.50;2.70;;;18.80;99.90;;;;;;5112673;27;20188;-48
2021/09/04 11:19:27;;;;;;;4.37;2.90;;;18.90;99.90;;;;;;5111702;27;20282;-45
2021/09/04 11:21:59;;;;;;;4.53;3.20;;;18.90;99.90;;;;;;5105334;27;20208;-47
2021/09/04 11:24:30;;;;;;;5.53;3.00;;;19.00;99.90;;;;;;5117983;27;20240;-47
2021/09/04 11:27:03;;;;;;;5.20;3.10;;;19.00;99.90;;;;;;5111756;27;20216;-48
2021/09/04 11:29:37;;;;;;;3.60;2.83;;;19.00;99.90;;;;;;5119581;27;20914;-47
2021/09/04 11:32:06;;;;;;;3.90;2.77;;;18.90;99.90;;;;;;5115779;27;20284;-46
2021/09/04 11:34:37;;;;;;;5.30;2.87;;;19.00;99.90;;;;;;5111712;27;20201;-48
2021/09/04 11:37:21;;;;;;;5.70;2.53;;;19.00;99.90;;;;;;5103822;27;20200;-47
2021/09/04 11:39:49;;;;;;;6.73;2.73;;;19.00;99.90;;;;;;5114620;27;20558;-47
2021/09/04 11:42:16;;;;;;;4.63;2.53;;;18.90;99.90;;;;;;5108238;27;20200;-47
2021/09/04 11:44:51;;;;;;;4.60;2.43;;;18.90;99.90;;;;;;5109953;27;20224;-46
2021/09/04 11:47:20;;;;;;;3.57;2.27;;;18.90;99.90;;;;;;5105987;27;20200;-51
2021/09/04 11:49:49;;;;;;;4.17;2.33;;;18.80;99.90;;;;;;5115977;27;20194;-46
2021/09/04 11:52:17;;;;;;;8.77;2.87;;;18.90;99.90;;;;;;5103221;27;20208;-48
2021/09/04 11:54:44;;;;;;;4.10;2.70;;;18.90;99.90;;;;;;5111887;27;20581;-47
2021/09/04 11:57:27;;;;;;;4.60;2.27;;;18.90;99.90;;;;;;5101649;27;20212;-47
2021/09/04 11:59:58;;;;;;;9.07;2.87;;;19.10;99.90;;;;;;5105377;27;20197;-49
2021/09/04 12:02:26;;;;;;;3.70;2.70;;;19.20;99.90;;;;;;5102018;27;20189;-48
2021/09/04 12:04:53;;;;;;;5.30;2.60;;;19.20;99.90;;;;;;5114892;27;20586;-46
2021/09/04 12:07:20;;;;;;;5.87;2.73;;;19.40;99.90;;;;;;5095223;27;20193;-52
2021/09/04 12:09:47;;;;;;;6.00;3.03;;;19.40;99.90;;;;;;5111468;27;20194;-45
2021/09/04 12:12:13;;;;;;;5.97;2.80;;;19.50;99.90;;;;;;5107792;27;20208;-51
2021/09/04 12:14:40;;;;;;;4.30;2.87;;;19.50;99.90;;;;;;5099891;27;20220;-44
2021/09/04 12:17:07;;;;;;;3.90;2.50;;;19.70;99.90;;;;;;5112843;27;20208;-52
2021/09/04 12:19:39;;;;;;;4.40;2.30;;;19.80;99.90;;;;;;5112447;27;20208;-45
2021/09/04 12:22:06;;;;;;;5.63;2.70;;;19.90;99.90;;;;;;5112146;27;20284;-51
2021/09/04 12:24:33;;;;;;;4.37;2.93;;;20.00;99.90;;;;;;5100890;27;20224;-47
2021/09/04 12:27:03;;;;;;;3.33;2.50;;;20.00;99.90;;;;;;5114864;27;20218;-54
2021/09/04 12:29:31;;;;;;;5.97;2.53;;;20.20;99.90;;;;;;5115485;27;20563;-43
2021/09/04 12:32:07;;;;;;;4.73;2.67;;;20.30;99.90;;;;;;5112396;27;20203;-53
2021/09/04 12:34:34;;;;;;;3.40;2.40;;;20.40;99.90;;;;;;5119036;27;20224;-46
2021/09/04 12:37:02;;;;;;;3.57;2.40;;;20.50;99.90;;;;;;5119592;27;20557;-50
2021/09/04 12:39:30;;;;;;;3.67;2.33;;;20.50;99.90;;;;;;5106309;27;20200;-45
2021/09/04 12:42:01;;;;;;;5.47;3.17;;;20.60;99.90;;;;;;5114316;27;20197;-52
2021/09/04 12:44:39;;;;;;;5.10;3.53;;;20.50;99.90;;;;;;5119763;27;20217;-46
2021/09/04 12:47:06;;;;;;;3.17;2.53;;;20.40;99.90;;;;;;5112310;27;20212;-43
2021/09/04 12:49:34;;;;;;;4.47;2.67;;;20.20;99.90;;;;;;5118446;27;20569;-47